Time;durP1;ratioP1;P1;durP2;ratioP2;P2;SDS_P1;SDS_P2;PMS_P1;PMS_P2;Temp;Humidity;BMP_temperature;BMP_pressure;BME280_temperature;BME280_humidity;BME280_pressure;Samples;Min_cycle;Max_cycle;Signal;HPM_P1;HPM_P2
2023/01/20 00:01:21;;;;;;;11.10;7.50;;;;;;;;;;5096597;28;20549;-73
2023/01/20 00:03:46;;;;;;;11.20;7.67;;;;;;;;;;5094376;28;20212;-73
2023/01/20 00:06:12;;;;;;;11.37;6.97;;;;;;;;;;5096500;28;20234;-73
2023/01/20 00:08:37;;;;;;;12.07;7.37;;;;;;;;;;5089293;28;20181;-73
2023/01/20 00:11:04;;;;;;;11.67;6.90;;;;;;;;;;5095257;28;20173;-75
2023/01/20 00:13:29;;;;;;;12.47;8.03;;;;;;;;;;5092790;28;20634;-75
2023/01/20 00:15:54;;;;;;;11.90;7.33;;;;;;;;;;5093049;28;20198;-73
2023/01/20 00:18:19;;;;;;;15.00;8.53;;;;;;;;;;5094499;28;21058;-74
2023/01/20 00:20:45;;;;;;;12.07;8.07;;;;;;;;;;5095765;28;20185;-73
2023/01/20 00:23:10;;;;;;;12.80;7.83;;;;;;;;;;5096475;28;20191;-73
2023/01/20 00:25:35;;;;;;;12.07;8.23;;;;;;;;;;5095673;27;20210;-74
2023/01/20 00:28:01;;;;;;;13.17;8.27;;;;;;;;;;5097370;27;20262;-74
2023/01/20 00:30:26;;;;;;;16.00;8.70;;;;;;;;;;5099362;27;20190;-73
2023/01/20 00:32:51;;;;;;;12.83;8.50;;;;;;;;;;5101605;27;20606;-73
2023/01/20 00:35:17;;;;;;;14.57;9.13;;;;;;;;;;5097691;28;20569;-74
2023/01/20 00:37:42;;;;;;;17.40;9.40;;;;;;;;;;5098406;27;20263;-73
2023/01/20 00:40:08;;;;;;;15.17;9.87;;;;;;;;;;5096125;27;20188;-73
2023/01/20 00:42:33;;;;;;;14.20;8.77;;;;;;;;;;5098329;28;20180;-74
2023/01/20 00:44:58;;;;;;;15.17;9.57;;;;;;;;;;5099133;27;20230;-73
2023/01/20 00:47:23;;;;;;;15.33;9.27;;;;;;;;;;5101333;27;20551;-73
2023/01/20 00:49:49;;;;;;;15.13;8.90;;;;;;;;;;5100751;27;20187;-73
2023/01/20 00:52:14;;;;;;;17.57;10.00;;;;;;;;;;5098030;27;20172;-74
2023/01/20 00:54:39;;;;;;;16.03;10.10;;;;;;;;;;5096504;27;20638;-73
2023/01/20 00:57:04;;;;;;;14.80;9.17;;;;;;;;;;5097024;27;20188;-73
2023/01/20 00:59:29;;;;;;;15.93;10.70;;;;;;;;;;5096976;27;20184;-73
2023/01/20 01:01:55;;;;;;;16.30;9.77;;;;;;;;;;5095940;27;20198;-75
2023/01/20 01:04:20;;;;;;;17.33;10.67;;;;;;;;;;5098341;27;20261;-73
2023/01/20 01:06:45;;;;;;;20.17;9.77;;;;;;;;;;5098124;27;20244;-73
2023/01/20 01:09:11;;;;;;;18.87;10.57;;;;;;;;;;5096629;27;20541;-76
2023/01/20 01:11:36;;;;;;;21.57;11.73;;;;;;;;;;5095103;28;20210;-72
2023/01/20 01:14:01;;;;;;;19.53;10.70;;;;;;;;;;5101814;27;20184;-75
2023/01/20 01:16:26;;;;;;;20.27;11.93;;;;;;;;;;5098360;27;20522;-72
2023/01/20 01:18:52;;;;;;;17.70;10.87;;;;;;;;;;5096993;27;20189;-73
2023/01/20 01:21:18;;;;;;;23.90;10.63;;;;;;;;;;5094656;27;20251;-72
2023/01/20 01:23:43;;;;;;;20.70;11.87;;;;;;;;;;5095810;28;20660;-76
2023/01/20 01:26:09;;;;;;;19.73;10.60;;;;;;;;;;5093793;28;22016;-73
2023/01/20 01:28:34;;;;;;;20.50;12.10;;;;;;;;;;5093168;28;20200;-72
2023/01/20 01:31:00;;;;;;;18.77;10.63;;;;;;;;;;5099796;28;20172;-73
2023/01/20 01:33:26;;;;;;;18.93;10.97;;;;;;;;;;5098753;28;20182;-73
2023/01/20 01:35:58;;;;;;;18.40;11.20;;;;;;;;;;5111644;27;20216;-73
2023/01/20 01:38:24;;;;;;;21.30;12.00;;;;;;;;;;5095063;28;20171;-73
2023/01/20 01:40:50;;;;;;;20.33;11.17;;;;;;;;;;5097247;28;20249;-73
2023/01/20 01:43:27;;;;;;;21.93;13.00;;;;;;;;;;5099452;28;20210;-73
2023/01/20 01:45:52;;;;;;;23.17;13.57;;;;;;;;;;5099243;28;20207;-73
2023/01/20 01:48:20;;;;;;;29.80;13.70;;;;;;;;;;5094317;28;20714;-73
2023/01/20 01:51:06;;;;;;;24.57;13.77;;;;;;;;;;5098141;27;20192;-74
2023/01/20 01:53:36;;;;;;;24.97;14.03;;;;;;;;;;5087068;27;20192;-73
2023/01/20 01:56:01;;;;;;;27.97;15.13;;;;;;;;;;5095497;28;20218;-74
2023/01/20 01:58:28;;;;;;;29.73;16.30;;;;;;;;;;5097013;27;20413;-73
2023/01/20 02:00:53;;;;;;;32.90;17.17;;;;;;;;;;5099010;27;20194;-73
2023/01/20 02:03:19;;;;;;;28.57;15.50;;;;;;;;;;5099381;28;20191;-73
2023/01/20 02:05:45;;;;;;;30.40;16.80;;;;;;;;;;5097243;27;20207;-73
2023/01/20 02:08:10;;;;;;;35.90;16.87;;;;;;;;;;5092807;27;20202;-73
2023/01/20 02:10:35;;;;;;;34.97;17.40;;;;;;;;;;5097432;27;20175;-74
2023/01/20 02:13:01;;;;;;;39.03;18.83;;;;;;;;;;5092779;27;20191;-74
2023/01/20 02:15:29;;;;;;;36.07;18.67;;;;;;;;;;5094484;28;20203;-74
2023/01/20 02:18:11;;;;;;;40.27;18.00;;;;;;;;;;5093141;28;20259;-73
2023/01/20 02:20:36;;;;;;;36.13;18.13;;;;;;;;;;5094594;28;20187;-74
2023/01/20 02:23:01;;;;;;;35.13;18.73;;;;;;;;;;5092946;28;20815;-74
2023/01/20 02:25:45;;;;;;;38.83;19.27;;;;;;;;;;5096483;27;20342;-74
2023/01/20 02:28:13;;;;;;;43.70;19.27;;;;;;;;;;5096430;27;20409;-73
2023/01/20 02:30:52;;;;;;;38.20;19.10;;;;;;;;;;5095561;28;20172;-74
2023/01/20 02:33:28;;;;;;;41.47;22.23;;;;;;;;;;5108171;27;20262;-73
2023/01/20 02:35:55;;;;;;;42.00;22.33;;;;;;;;;;5096806;27;20240;-73
2023/01/20 02:38:27;;;;;;;47.53;20.77;;;;;;;;;;5091312;28;20211;-73
2023/01/20 02:40:55;;;;;;;35.37;18.90;;;;;;;;;;5092601;28;20180;-73
2023/01/20 02:43:31;;;;;;;38.27;19.07;;;;;;;;;;5091577;28;20213;-73
2023/01/20 02:46:16;;;;;;;43.50;19.93;;;;;;;;;;5112473;27;20212;-73
2023/01/20 02:48:47;;;;;;;39.30;18.87;;;;;;;;;;5054741;28;20212;-73
2023/01/20 02:51:24;;;;;;;42.63;19.27;;;;;;;;;;5095476;28;20177;-73
2023/01/20 02:53:55;;;;;;;45.50;19.00;;;;;;;;;;5108111;27;20195;-73
2023/01/20 02:56:22;;;;;;;39.47;20.20;;;;;;;;;;5091602;28;20203;-73
2023/01/20 02:58:49;;;;;;;46.20;20.10;;;;;;;;;;5095698;28;20248;-74
2023/01/20 03:01:29;;;;;;;40.47;19.37;;;;;;;;;;5092945;28;20247;-73
2023/01/20 03:03:55;;;;;;;38.67;19.37;;;;;;;;;;5094435;28;20176;-73
2023/01/20 03:06:23;;;;;;;41.60;19.07;;;;;;;;;;5089690;28;20214;-74
2023/01/20 03:08:50;;;;;;;48.90;21.37;;;;;;;;;;5090995;28;20184;-73
2023/01/20 03:11:15;;;;;;;40.03;21.20;;;;;;;;;;5090325;28;20885;-73
2023/01/20 03:13:44;;;;;;;44.13;20.33;;;;;;;;;;5094834;28;20179;-73
2023/01/20 03:16:12;;;;;;;46.87;21.03;;;;;;;;;;5092252;28;20213;-74
2023/01/20 03:18:38;;;;;;;42.87;19.83;;;;;;;;;;5098713;28;20559;-74
2023/01/20 03:21:04;;;;;;;41.47;21.00;;;;;;;;;;5093232;28;20184;-73
2023/01/20 03:23:32;;;;;;;43.73;21.33;;;;;;;;;;5093789;28;20555;-74
2023/01/20 03:25:57;;;;;;;43.93;20.27;;;;;;;;;;5095005;28;20204;-74
2023/01/20 03:28:23;;;;;;;46.73;21.30;;;;;;;;;;5092333;28;20234;-74
2023/01/20 03:30:48;;;;;;;47.20;21.77;;;;;;;;;;5092906;28;20208;-74
2023/01/20 03:33:14;;;;;;;40.50;19.97;;;;;;;;;;5093498;28;20183;-73
2023/01/20 03:35:39;;;;;;;37.40;20.87;;;;;;;;;;5093836;28;20191;-74
2023/01/20 03:38:04;;;;;;;46.53;21.80;;;;;;;;;;5109145;27;20183;-74
2023/01/20 03:40:32;;;;;;;43.83;21.30;;;;;;;;;;5094250;28;20224;-74
2023/01/20 03:43:00;;;;;;;45.83;21.17;;;;;;;;;;5090636;28;20176;-73
2023/01/20 03:45:38;;;;;;;42.70;21.00;;;;;;;;;;5091192;28;20697;-72
2023/01/20 03:48:13;;;;;;;43.57;21.03;;;;;;;;;;5094347;28;20740;-72
2023/01/20 03:50:44;;;;;;;46.30;20.63;;;;;;;;;;5100732;28;20635;-73
2023/01/20 03:53:36;;;;;;;53.53;22.80;;;;;;;;;;5107913;27;20168;-72
2023/01/20 03:56:07;;;;;;;53.63;24.07;;;;;;;;;;5089728;28;20203;-73
2023/01/20 03:58:35;;;;;;;51.20;23.63;;;;;;;;;;5096792;28;20691;-72
2023/01/20 04:01:03;;;;;;;48.07;21.73;;;;;;;;;;5097843;27;20172;-73
2023/01/20 04:03:29;;;;;;;44.97;21.70;;;;;;;;;;5102809;27;20179;-72
2023/01/20 04:05:56;;;;;;;49.27;22.30;;;;;;;;;;5107673;22;20219;-78
2023/01/20 04:08:23;;;;;;;51.00;21.50;;;;;;;;;;5100754;27;20172;-79
2023/01/20 04:10:49;;;;;;;53.00;24.90;;;;;;;;;;5096124;27;20671;-78
2023/01/20 04:13:15;;;;;;;56.40;22.83;;;;;;;;;;5099399;27;20251;-78
2023/01/20 04:15:43;;;;;;;56.93;25.63;;;;;;;;;;5102537;27;20290;-79
2023/01/20 04:18:19;;;;;;;51.27;21.83;;;;;;;;;;5110954;27;20195;-79
2023/01/20 04:20:46;;;;;;;54.50;22.60;;;;;;;;;;5098754;28;20180;-79
2023/01/20 04:23:15;;;;;;;50.90;23.40;;;;;;;;;;5091716;28;20190;-79
2023/01/20 04:25:41;;;;;;;58.93;25.53;;;;;;;;;;5093174;27;20216;-79
2023/01/20 04:28:06;;;;;;;57.97;22.10;;;;;;;;;;5103738;28;20186;-79
2023/01/20 04:30:31;;;;;;;55.77;23.50;;;;;;;;;;5100404;28;20283;-79
2023/01/20 04:32:56;;;;;;;60.20;24.03;;;;;;;;;;5105442;27;20168;-79
2023/01/20 04:35:22;;;;;;;56.80;23.80;;;;;;;;;;5095305;27;20198;-79
2023/01/20 04:37:47;;;;;;;59.97;25.60;;;;;;;;;;5114403;27;20527;-79
2023/01/20 04:40:12;;;;;;;54.57;24.63;;;;;;;;;;5108046;28;20187;-78
2023/01/20 04:42:37;;;;;;;49.53;25.00;;;;;;;;;;5107911;27;20187;-79
2023/01/20 04:45:03;;;;;;;53.13;23.30;;;;;;;;;;5104599;28;20209;-79
2023/01/20 04:47:29;;;;;;;54.17;24.47;;;;;;;;;;5101734;28;20225;-79
2023/01/20 04:49:54;;;;;;;52.53;23.40;;;;;;;;;;5101490;28;20176;-79
2023/01/20 04:52:19;;;;;;;52.60;22.97;;;;;;;;;;5100075;28;22342;-77
2023/01/20 04:54:44;;;;;;;54.70;24.43;;;;;;;;;;5094388;28;20218;-77
2023/01/20 04:57:09;;;;;;;57.73;23.43;;;;;;;;;;5096114;28;20321;-79
2023/01/20 04:59:35;;;;;;;64.03;24.27;;;;;;;;;;5100892;28;20212;-79
2023/01/20 05:02:00;;;;;;;54.70;25.40;;;;;;;;;;5100146;27;20198;-79
2023/01/20 05:04:25;;;;;;;54.97;24.70;;;;;;;;;;5095040;28;20196;-79
2023/01/20 05:06:50;;;;;;;61.20;25.43;;;;;;;;;;5098514;28;20211;-79
2023/01/20 05:09:16;;;;;;;61.33;27.53;;;;;;;;;;5108251;27;20179;-77
2023/01/20 05:11:41;;;;;;;59.87;25.43;;;;;;;;;;5095842;28;20259;-77
2023/01/20 05:14:07;;;;;;;63.43;26.60;;;;;;;;;;5095593;28;20182;-79
2023/01/20 05:16:33;;;;;;;60.77;26.20;;;;;;;;;;5095125;28;20199;-77
2023/01/20 05:18:58;;;;;;;74.33;28.73;;;;;;;;;;5093932;28;20179;-79
2023/01/20 05:21:23;;;;;;;68.07;27.60;;;;;;;;;;5094074;28;20187;-77
2023/01/20 05:23:49;;;;;;;65.13;28.30;;;;;;;;;;5097271;28;20179;-77
2023/01/20 05:26:14;;;;;;;64.77;26.07;;;;;;;;;;5093780;28;20671;-77
2023/01/20 05:28:41;;;;;;;65.03;26.37;;;;;;;;;;5095543;28;20530;-77
2023/01/20 05:31:06;;;;;;;70.50;27.93;;;;;;;;;;5094994;28;20232;-77
2023/01/20 05:33:31;;;;;;;71.70;26.70;;;;;;;;;;5094663;28;20172;-77
2023/01/20 05:35:56;;;;;;;68.00;27.70;;;;;;;;;;5095010;28;20210;-78
2023/01/20 05:38:21;;;;;;;64.53;29.00;;;;;;;;;;5111131;27;20234;-77
2023/01/20 05:40:47;;;;;;;68.30;29.87;;;;;;;;;;5094953;28;20187;-77
2023/01/20 05:43:12;;;;;;;64.83;28.13;;;;;;;;;;5091862;28;20190;-77
2023/01/20 05:45:37;;;;;;;87.10;30.30;;;;;;;;;;5096992;28;20733;-77
2023/01/20 05:48:03;;;;;;;74.17;30.33;;;;;;;;;;5101336;28;20184;-78
2023/01/20 05:50:28;;;;;;;73.77;29.10;;;;;;;;;;5103113;27;20251;-79
2023/01/20 05:52:53;;;;;;;83.03;30.43;;;;;;;;;;5099200;28;20245;-79
2023/01/20 05:55:19;;;;;;;71.33;28.70;;;;;;;;;;5095119;28;20196;-79
2023/01/20 05:57:44;;;;;;;79.53;30.90;;;;;;;;;;5093556;28;20168;-79
2023/01/20 06:00:10;;;;;;;88.20;33.83;;;;;;;;;;5096266;28;20259;-77
2023/01/20 06:02:35;;;;;;;74.23;30.13;;;;;;;;;;5098512;28;20649;-78
2023/01/20 06:05:00;;;;;;;68.57;28.57;;;;;;;;;;5094228;27;20211;-79
2023/01/20 06:07:26;;;;;;;68.20;28.57;;;;;;;;;;5100165;27;20181;-79
2023/01/20 06:09:51;;;;;;;67.53;25.93;;;;;;;;;;5101189;27;20316;-78
2023/01/20 06:12:16;;;;;;;76.13;29.90;;;;;;;;;;5102261;27;20233;-78
2023/01/20 06:14:41;;;;;;;69.10;29.20;;;;;;;;;;5104467;27;20200;-77
2023/01/20 06:17:07;;;;;;;76.57;27.57;;;;;;;;;;5103638;28;20553;-77
2023/01/20 06:19:32;;;;;;;68.57;27.00;;;;;;;;;;5101512;28;20179;-78
2023/01/20 06:21:57;;;;;;;64.73;27.07;;;;;;;;;;5108477;28;20176;-77
2023/01/20 06:24:22;;;;;;;71.50;28.53;;;;;;;;;;5098656;28;20203;-78
2023/01/20 06:26:51;;;;;;;75.37;30.67;;;;;;;;;;5101354;28;20244;-78
2023/01/20 06:29:16;;;;;;;72.50;29.13;;;;;;;;;;5101095;27;20191;-78
2023/01/20 06:31:42;;;;;;;68.27;28.80;;;;;;;;;;5114664;27;20323;-77
2023/01/20 06:34:09;;;;;;;73.47;29.57;;;;;;;;;;5101951;28;20176;-78
2023/01/20 06:36:34;;;;;;;75.57;27.77;;;;;;;;;;5110593;27;20219;-78
2023/01/20 06:38:59;;;;;;;75.20;31.17;;;;;;;;;;5097005;28;20699;-78
2023/01/20 06:41:24;;;;;;;71.27;28.47;;;;;;;;;;5099559;28;20181;-78
2023/01/20 06:43:50;;;;;;;79.10;28.27;;;;;;;;;;5094122;28;20611;-78
2023/01/20 06:46:15;;;;;;;75.40;28.97;;;;;;;;;;5101548;27;20231;-78
2023/01/20 06:48:41;;;;;;;68.90;27.97;;;;;;;;;;5100718;27;20201;-78
2023/01/20 06:51:06;;;;;;;69.93;28.60;;;;;;;;;;5103214;28;20176;-77
2023/01/20 06:53:31;;;;;;;68.27;26.77;;;;;;;;;;5095673;27;20676;-78
2023/01/20 06:55:57;;;;;;;64.60;26.93;;;;;;;;;;5097723;28;20199;-78
2023/01/20 06:58:26;;;;;;;62.40;27.27;;;;;;;;;;5099060;27;20223;-78
2023/01/20 07:00:52;;;;;;;59.03;23.83;;;;;;;;;;5100487;28;20188;-78
2023/01/20 07:03:17;;;;;;;56.47;25.50;;;;;;;;;;5099020;28;20180;-78
2023/01/20 07:05:42;;;;;;;57.93;25.70;;;;;;;;;;5094571;28;20218;-77
2023/01/20 07:08:07;;;;;;;61.20;25.70;;;;;;;;;;5108587;27;20172;-77
2023/01/20 07:10:33;;;;;;;60.30;23.43;;;;;;;;;;5097528;28;20236;-76
2023/01/20 07:12:58;;;;;;;55.57;25.37;;;;;;;;;;5097363;27;20173;-76
2023/01/20 07:15:23;;;;;;;58.17;23.90;;;;;;;;;;5097238;27;20218;-77
2023/01/20 07:17:48;;;;;;;64.60;26.60;;;;;;;;;;5091558;27;20179;-77
2023/01/20 07:20:14;;;;;;;52.87;24.50;;;;;;;;;;5097788;28;20190;-77
2023/01/20 07:22:39;;;;;;;59.87;24.20;;;;;;;;;;5098233;28;20202;-77
2023/01/20 07:25:04;;;;;;;55.90;23.77;;;;;;;;;;5095570;28;20684;-78
2023/01/20 07:27:29;;;;;;;53.17;23.20;;;;;;;;;;5092300;28;20191;-78
2023/01/20 07:29:55;;;;;;;51.23;24.43;;;;;;;;;;5096148;28;20175;-78
2023/01/20 07:32:20;;;;;;;53.93;22.73;;;;;;;;;;5096013;28;20172;-78
2023/01/20 07:34:45;;;;;;;46.10;21.40;;;;;;;;;;5103623;27;20321;-78
2023/01/20 07:37:10;;;;;;;44.33;20.40;;;;;;;;;;5101112;27;20183;-79
2023/01/20 07:39:35;;;;;;;52.63;22.90;;;;;;;;;;5101611;27;20294;-77
2023/01/20 07:42:01;;;;;;;40.47;21.00;;;;;;;;;;5104930;28;20653;-76
2023/01/20 07:44:26;;;;;;;45.13;22.17;;;;;;;;;;5103590;28;21367;-77
2023/01/20 07:46:51;;;;;;;43.50;21.17;;;;;;;;;;5117508;28;20197;-77
2023/01/20 07:49:16;;;;;;;40.83;20.50;;;;;;;;;;5118086;27;20259;-77
2023/01/20 07:51:42;;;;;;;44.23;21.57;;;;;;;;;;5118101;28;20633;-77
2023/01/20 07:54:09;;;;;;;46.20;20.63;;;;;;;;;;5118447;28;20180;-77
2023/01/20 07:56:34;;;;;;;46.07;20.07;;;;;;;;;;5116164;28;20199;-77
2023/01/20 07:58:59;;;;;;;40.93;21.13;;;;;;;;;;5114758;28;20184;-77
2023/01/20 08:01:26;;;;;;;43.67;21.57;;;;;;;;;;5112601;28;20221;-76
2023/01/20 08:03:51;;;;;;;40.17;19.70;;;;;;;;;;5113594;28;20179;-77
2023/01/20 08:06:19;;;;;;;39.37;20.23;;;;;;;;;;5109908;28;20227;-77
2023/01/20 08:08:44;;;;;;;41.20;21.33;;;;;;;;;;5109690;28;20262;-76
2023/01/20 08:11:12;;;;;;;42.20;19.47;;;;;;;;;;5109846;28;20251;-79
2023/01/20 08:13:38;;;;;;;38.57;20.30;;;;;;;;;;5119246;27;20167;-76
2023/01/20 08:16:04;;;;;;;44.93;21.27;;;;;;;;;;5108130;27;20284;-78
2023/01/20 08:18:31;;;;;;;41.63;20.37;;;;;;;;;;5094474;28;20186;-77
2023/01/20 08:20:56;;;;;;;40.73;20.90;;;;;;;;;;5102205;28;20192;-77
2023/01/20 08:23:21;;;;;;;44.73;22.43;;;;;;;;;;5102614;27;20175;-78
2023/01/20 08:25:46;;;;;;;44.30;21.33;;;;;;;;;;5096613;28;20303;-77
2023/01/20 08:28:12;;;;;;;48.87;22.43;;;;;;;;;;5097375;27;20183;-77
2023/01/20 08:30:37;;;;;;;47.67;21.03;;;;;;;;;;5095104;28;20172;-78
2023/01/20 08:33:02;;;;;;;42.27;22.27;;;;;;;;;;5100905;28;20192;-78
2023/01/20 08:35:27;;;;;;;39.63;20.77;;;;;;;;;;5096173;27;20197;-77
2023/01/20 08:37:52;;;;;;;39.00;19.87;;;;;;;;;;5095583;28;20259;-77
2023/01/20 08:40:18;;;;;;;40.53;20.60;;;;;;;;;;5107481;27;20188;-77
2023/01/20 08:42:43;;;;;;;45.57;20.27;;;;;;;;;;5094381;28;20257;-77
2023/01/20 08:45:08;;;;;;;43.37;22.77;;;;;;;;;;5098922;27;20199;-77
2023/01/20 08:47:35;;;;;;;41.10;18.93;;;;;;;;;;5102398;28;20607;-77
2023/01/20 08:50:00;;;;;;;42.13;20.87;;;;;;;;;;5111390;27;20215;-77
2023/01/20 08:52:26;;;;;;;43.30;19.83;;;;;;;;;;5099139;28;20679;-78
2023/01/20 08:54:52;;;;;;;34.63;18.90;;;;;;;;;;5095117;28;20551;-78
2023/01/20 08:57:17;;;;;;;37.00;18.73;;;;;;;;;;5097521;28;20375;-76
2023/01/20 08:59:43;;;;;;;36.60;19.30;;;;;;;;;;5094704;27;20210;-79
2023/01/20 09:02:08;;;;;;;37.00;18.27;;;;;;;;;;5091417;27;20198;-76
2023/01/20 09:04:35;;;;;;;34.50;19.13;;;;;;;;;;5091605;28;20225;-79
2023/01/20 09:07:00;;;;;;;33.60;17.20;;;;;;;;;;5095328;27;20187;-78
2023/01/20 09:09:25;;;;;;;33.57;17.77;;;;;;;;;;5099224;28;20558;-78
2023/01/20 09:11:50;;;;;;;33.70;18.20;;;;;;;;;;5094122;27;20230;-77
2023/01/20 09:14:19;;;;;;;34.33;17.47;;;;;;;;;;5098106;28;20168;-77
2023/01/20 09:16:44;;;;;;;33.17;17.27;;;;;;;;;;5089999;28;20248;-77
2023/01/20 09:19:09;;;;;;;28.57;15.93;;;;;;;;;;5095803;28;20167;-77
2023/01/20 09:21:35;;;;;;;31.03;16.53;;;;;;;;;;5097366;27;20172;-77
2023/01/20 09:24:00;;;;;;;30.37;16.13;;;;;;;;;;5095715;28;20199;-77
2023/01/20 09:26:25;;;;;;;29.53;17.23;;;;;;;;;;5094010;28;20238;-77
2023/01/20 09:28:50;;;;;;;32.30;16.27;;;;;;;;;;5096344;28;20180;-77
2023/01/20 09:31:16;;;;;;;27.73;15.77;;;;;;;;;;5093855;27;20178;-77
2023/01/20 09:33:42;;;;;;;30.17;16.13;;;;;;;;;;5108842;27;20176;-77
2023/01/20 09:36:08;;;;;;;25.33;14.00;;;;;;;;;;5095300;27;20196;-77
2023/01/20 09:44:15;;;;;;;25.03;13.60;;;;;;;;;;5094981;28;20187;-78
2023/01/20 09:46:40;;;;;;;27.00;14.63;;;;;;;;;;5100188;28;20196;-77
2023/01/20 09:55:11;;;;;;;26.27;14.00;;;;;;;;;;5098304;27;20218;-77
2023/01/20 09:57:38;;;;;;;24.90;13.93;;;;;;;;;;5095099;27;20307;-77
2023/01/20 10:00:09;;;;;;;24.90;14.00;;;;;;;;;;5095745;28;20191;-77
2023/01/20 10:02:35;;;;;;;23.37;14.97;;;;;;;;;;5095056;28;20184;-77
2023/01/20 10:07:32;;;;;;;20.57;12.40;;;;;;;;;;5090841;28;20307;-72
2023/01/20 10:10:08;;;;;;;22.27;12.43;;;;;;;;;;5092007;28;20184;-71
2023/01/20 10:12:36;;;;;;;21.40;12.87;;;;;;;;;;5093902;28;20179;-72
2023/01/20 10:15:16;;;;;;;23.13;12.97;;;;;;;;;;5095199;28;20176;-72
2023/01/20 10:17:47;;;;;;;21.60;12.60;;;;;;;;;;5092035;28;20529;-72
2023/01/20 10:20:15;;;;;;;23.87;12.57;;;;;;;;;;5094096;28;20700;-72
2023/01/20 10:22:50;;;;;;;18.67;11.30;;;;;;;;;;5079611;28;20190;-72
2023/01/20 10:25:21;;;;;;;20.37;12.00;;;;;;;;;;5076355;28;20214;-72
2023/01/20 10:27:52;;;;;;;19.77;11.97;;;;;;;;;;5095457;28;20191;-71
2023/01/20 10:30:18;;;;;;;18.33;11.67;;;;;;;;;;5097348;28;20195;-72
2023/01/20 10:32:54;;;;;;;20.13;13.37;;;;;;;;;;5094677;28;20268;-71
2023/01/20 10:35:21;;;;;;;18.90;11.80;;;;;;;;;;5093392;28;20229;-71
2023/01/20 10:37:47;;;;;;;18.93;11.50;;;;;;;;;;5078483;28;21182;-72
2023/01/20 10:40:30;;;;;;;17.70;11.03;;;;;;;;;;5099071;28;20182;-72
2023/01/20 10:42:59;;;;;;;20.23;10.97;;;;;;;;;;5092781;28;20609;-72
2023/01/20 10:45:43;;;;;;;16.70;9.63;;;;;;;;;;5094837;28;20261;-72
2023/01/20 10:48:41;;;;;;;14.37;9.90;;;;;;;;;;5093997;28;20530;-71
2023/01/20 10:51:09;;;;;;;16.17;9.60;;;;;;;;;;5046043;28;20256;-72
2023/01/20 10:53:38;;;;;;;15.20;9.53;;;;;;;;;;5076162;28;20671;-72
2023/01/20 10:56:18;;;;;;;14.17;9.13;;;;;;;;;;5097527;28;20202;-72
2023/01/20 10:58:44;;;;;;;15.63;9.57;;;;;;;;;;5105593;28;20180;-72
2023/01/20 11:01:12;;;;;;;16.37;8.63;;;;;;;;;;5109640;28;20237;-72
2023/01/20 11:03:41;;;;;;;12.57;8.30;;;;;;;;;;5110673;28;20172;-72
2023/01/20 11:06:09;;;;;;;12.80;7.97;;;;;;;;;;5108712;28;20215;-72
2023/01/20 11:08:35;;;;;;;15.53;9.47;;;;;;;;;;5101452;28;20176;-72
2023/01/20 11:11:09;;;;;;;11.37;7.50;;;;;;;;;;5084117;28;20702;-72
2023/01/20 11:13:34;;;;;;;12.80;7.87;;;;;;;;;;5090491;28;20178;-72
2023/01/20 11:16:02;;;;;;;12.03;7.80;;;;;;;;;;5091717;28;20613;-72
2023/01/20 11:18:29;;;;;;;11.20;7.77;;;;;;;;;;5076955;28;20180;-72
2023/01/20 11:20:56;;;;;;;11.60;7.57;;;;;;;;;;5093590;28;20619;-72
2023/01/20 11:23:25;;;;;;;12.47;7.13;;;;;;;;;;5092060;28;20172;-72
2023/01/20 11:25:57;;;;;;;9.00;6.03;;;;;;;;;;5095433;28;20237;-72
2023/01/20 11:28:23;;;;;;;11.63;6.80;;;;;;;;;;5093286;28;20186;-72
2023/01/20 11:30:52;;;;;;;9.50;6.20;;;;;;;;;;5088593;28;20175;-72
2023/01/20 11:33:25;;;;;;;11.40;7.50;;;;;;;;;;5095322;28;20203;-72
2023/01/20 11:35:57;;;;;;;11.67;8.37;;;;;;;;;;5093288;28;20280;-72
2023/01/20 11:38:23;;;;;;;12.97;7.27;;;;;;;;;;5093379;28;20437;-72
2023/01/20 11:40:52;;;;;;;11.53;7.27;;;;;;;;;;5090602;28;20645;-73
2023/01/20 11:43:28;;;;;;;10.00;6.70;;;;;;;;;;5092520;28;20645;-75
2023/01/20 11:46:08;;;;;;;10.77;6.37;;;;;;;;;;5094306;28;20228;-72
2023/01/20 11:48:33;;;;;;;10.70;7.07;;;;;;;;;;5091993;28;20180;-72
2023/01/20 11:51:00;;;;;;;10.10;7.10;;;;;;;;;;5097373;28;20668;-72
2023/01/20 11:53:26;;;;;;;10.87;7.37;;;;;;;;;;5091204;28;20684;-73
2023/01/20 11:55:53;;;;;;;11.07;8.10;;;;;;;;;;5076625;28;20214;-73
2023/01/20 11:58:30;;;;;;;12.43;8.30;;;;;;;;;;5092486;28;20568;-72
2023/01/20 12:01:19;;;;;;;12.63;8.10;;;;;;;;;;5092131;28;20856;-73
2023/01/20 12:03:59;;;;;;;13.77;8.83;;;;;;;;;;5079399;28;20191;-73
2023/01/20 12:06:24;;;;;;;11.10;7.63;;;;;;;;;;5093506;28;20206;-73
2023/01/20 12:08:55;;;;;;;11.77;8.40;;;;;;;;;;5089761;28;20173;-72
2023/01/20 12:11:23;;;;;;;13.73;9.03;;;;;;;;;;5094909;28;20177;-73
2023/01/20 12:14:23;;;;;;;14.00;8.47;;;;;;;;;;5097701;28;20183;-72
2023/01/20 12:16:54;;;;;;;8.90;5.93;;;;;;;;;;5090393;28;20200;-72
2023/01/20 12:19:26;;;;;;;9.73;6.93;;;;;;;;;;5092117;28;20183;-73
2023/01/20 12:21:52;;;;;;;11.47;7.33;;;;;;;;;;5095950;28;20191;-72
2023/01/20 12:24:24;;;;;;;10.33;6.10;;;;;;;;;;5095922;28;20553;-72
2023/01/20 12:26:49;;;;;;;11.40;6.80;;;;;;;;;;5094360;28;20466;-73
2023/01/20 12:29:35;;;;;;;9.70;6.23;;;;;;;;;;5094280;28;20205;-73
2023/01/20 12:32:00;;;;;;;11.07;7.20;;;;;;;;;;5099088;28;20175;-73
2023/01/20 12:34:27;;;;;;;12.63;7.03;;;;;;;;;;5093981;28;20217;-72
2023/01/20 12:37:12;;;;;;;10.70;6.93;;;;;;;;;;5092822;28;20196;-72
2023/01/20 12:39:40;;;;;;;13.40;7.60;;;;;;;;;;5097083;28;20215;-72
2023/01/20 12:42:33;;;;;;;12.20;7.70;;;;;;;;;;5096189;28;20521;-72
2023/01/20 12:44:58;;;;;;;11.53;7.93;;;;;;;;;;5096884;28;20291;-73
2023/01/20 12:47:35;;;;;;;12.70;8.07;;;;;;;;;;5096052;28;20611;-73
2023/01/20 12:50:12;;;;;;;11.43;7.53;;;;;;;;;;5098344;28;20175;-73
2023/01/20 12:52:49;;;;;;;10.70;8.03;;;;;;;;;;5104494;28;20304;-72
2023/01/20 12:55:25;;;;;;;12.63;9.50;;;;;;;;;;5096910;28;20252;-72
2023/01/20 12:57:56;;;;;;;13.00;8.00;;;;;;;;;;5094948;28;20243;-73
2023/01/20 13:00:22;;;;;;;11.60;7.93;;;;;;;;;;5095431;28;20291;-72
2023/01/20 13:02:50;;;;;;;13.10;8.43;;;;;;;;;;5082938;28;20724;-72
2023/01/20 13:05:35;;;;;;;12.23;8.53;;;;;;;;;;5096699;28;20207;-72
2023/01/20 13:08:10;;;;;;;14.13;8.60;;;;;;;;;;5094894;28;20652;-72
2023/01/20 13:10:52;;;;;;;12.83;9.07;;;;;;;;;;5094829;28;20174;-73
2023/01/20 13:13:39;;;;;;;14.63;8.33;;;;;;;;;;5084709;28;20198;-73
2023/01/20 13:16:15;;;;;;;12.33;8.53;;;;;;;;;;5076851;28;20760;-72
2023/01/20 13:18:43;;;;;;;14.60;8.17;;;;;;;;;;5093850;28;20231;-73
2023/01/20 13:21:15;;;;;;;13.37;8.73;;;;;;;;;;5088041;28;20177;-72
2023/01/20 13:23:41;;;;;;;13.87;8.20;;;;;;;;;;5093874;27;20176;-73
2023/01/20 13:26:06;;;;;;;15.27;9.20;;;;;;;;;;5095984;28;20208;-73
2023/01/20 13:28:32;;;;;;;17.47;9.87;;;;;;;;;;5093200;28;20204;-72
2023/01/20 13:30:58;;;;;;;13.10;9.37;;;;;;;;;;5078306;28;20179;-73
2023/01/20 13:33:32;;;;;;;14.37;10.40;;;;;;;;;;5098417;28;20217;-73
2023/01/20 13:35:59;;;;;;;15.13;9.43;;;;;;;;;;5092856;28;20690;-73
2023/01/20 13:38:32;;;;;;;15.30;9.67;;;;;;;;;;5092969;27;20240;-73
2023/01/20 13:41:02;;;;;;;16.47;9.67;;;;;;;;;;5093133;28;20191;-73
2023/01/20 13:43:30;;;;;;;16.00;10.07;;;;;;;;;;5092133;28;20192;-73
2023/01/20 13:46:01;;;;;;;17.97;10.07;;;;;;;;;;5097397;28;20334;-73
2023/01/20 13:48:26;;;;;;;15.10;10.00;;;;;;;;;;5076811;28;20257;-73
2023/01/20 13:50:52;;;;;;;17.67;10.13;;;;;;;;;;5099128;28;20173;-73
2023/01/20 13:53:20;;;;;;;17.23;10.23;;;;;;;;;;5093314;28;20187;-73
2023/01/20 13:55:47;;;;;;;14.60;8.67;;;;;;;;;;5078921;28;20294;-73
2023/01/20 13:58:25;;;;;;;18.10;10.90;;;;;;;;;;5097270;28;20180;-73
2023/01/20 14:00:55;;;;;;;17.67;10.63;;;;;;;;;;5091741;28;20195;-73
2023/01/20 14:03:23;;;;;;;16.73;10.87;;;;;;;;;;5095164;28;20672;-73
2023/01/20 14:05:49;;;;;;;17.93;10.80;;;;;;;;;;5094621;28;20230;-73
2023/01/20 14:08:15;;;;;;;17.50;11.40;;;;;;;;;;5093814;28;20193;-73
2023/01/20 14:10:41;;;;;;;19.33;10.93;;;;;;;;;;5095162;28;20176;-73
2023/01/20 14:13:10;;;;;;;21.63;12.10;;;;;;;;;;5096422;28;20210;-72
2023/01/20 14:15:36;;;;;;;22.90;12.40;;;;;;;;;;5095904;28;20347;-73
2023/01/20 14:18:02;;;;;;;21.87;10.83;;;;;;;;;;5077949;28;20192;-73
2023/01/20 14:20:28;;;;;;;19.53;10.57;;;;;;;;;;5093820;28;20952;-72
2023/01/20 14:22:53;;;;;;;20.93;11.47;;;;;;;;;;5077535;28;20184;-73
2023/01/20 14:25:23;;;;;;;20.97;11.63;;;;;;;;;;5096702;28;20580;-73
2023/01/20 14:27:48;;;;;;;22.67;11.43;;;;;;;;;;5094151;27;20191;-73
2023/01/20 14:30:15;;;;;;;17.30;10.10;;;;;;;;;;5095620;28;20184;-73
2023/01/20 14:32:40;;;;;;;20.50;11.53;;;;;;;;;;5094643;28;20176;-73
2023/01/20 14:35:15;;;;;;;18.13;10.63;;;;;;;;;;5094194;28;20237;-73
2023/01/20 14:37:40;;;;;;;17.27;10.47;;;;;;;;;;5092140;28;20194;-73
2023/01/20 14:40:08;;;;;;;18.30;11.43;;;;;;;;;;5074623;28;20559;-73